Adelphia, New Jersey
Current Conditions -  °F | °C
As of 9:55 PM on Monday 22 Dec 2014 (Local Time) from KBLM Reporting Station
Overcast Overcast  
Wind Chill:   Ceiling: 500
Heat Index:   Visibility: 10mi
Dew Point:   Wind: 9mph
Humidity: 82%   Direction: 70°ENE
Pressure: 30.17"   Gusts: 16mph
Location:  40.22°N, 74.26°W
Report Text: KBLM 230255Z AUTO 07008G14KT 10SM OVC005 09/06 A3017 RMK AO1 57007
Loading
Personal Weather Stations






























Interactive Weather Map New forecast layout! Learn more

10-Day Weather Forecast

Advertisements
Track Severe Weather on mobile